sensor_id;sensor_type;location;lat;lon;timestamp;P1;P2;P0
80413;PMS5003;69758;52.580;13.068;2023-10-31T00:01:49;12;12;
80413;PMS5003;69758;52.580;13.068;2023-10-31T00:04:14;9;7;
80413;PMS5003;69758;52.580;13.068;2023-10-31T00:06:39;12;11;
80413;PMS5003;69758;52.580;13.068;2023-10-31T00:09:04;9;9;
80413;PMS5003;69758;52.580;13.068;2023-10-31T00:11:30;8;8;
80413;PMS5003;69758;52.580;13.068;2023-10-31T00:13:55;6;6;
80413;PMS5003;69758;52.580;13.068;2023-10-31T00:16:20;8;8;
80413;PMS5003;69758;52.580;13.068;2023-10-31T00:18:46;8;8;
80413;PMS5003;69758;52.580;13.068;2023-10-31T00:21:11;8;8;
80413;PMS5003;69758;52.580;13.068;2023-10-31T00:26:02;8;7;
80413;PMS5003;69758;52.580;13.068;2023-10-31T00:28:27;8;8;
80413;PMS5003;69758;52.580;13.068;2023-10-31T00:30:52;7;6;
80413;PMS5003;69758;52.580;13.068;2023-10-31T00:33:17;7;7;
80413;PMS5003;69758;52.580;13.068;2023-10-31T00:35:42;8;8;
80413;PMS5003;69758;52.580;13.068;2023-10-31T00:38:08;7;7;
80413;PMS5003;69758;52.580;13.068;2023-10-31T00:40:33;12;11;
80413;PMS5003;69758;52.580;13.068;2023-10-31T00:42:58;10;10;
80413;PMS5003;69758;52.580;13.068;2023-10-31T00:45:23;9;9;
80413;PMS5003;69758;52.580;13.068;2023-10-31T00:47:49;7;7;
80413;PMS5003;69758;52.580;13.068;2023-10-31T00:50:14;8;8;
80413;PMS5003;69758;52.580;13.068;2023-10-31T00:52:40;10;9;
80413;PMS5003;69758;52.580;13.068;2023-10-31T00:55:05;9;9;
80413;PMS5003;69758;52.580;13.068;2023-10-31T00:57:30;9;9;
80413;PMS5003;69758;52.580;13.068;2023-10-31T00:59:56;11;10;
80413;PMS5003;69758;52.580;13.068;2023-10-31T01:02:21;10;9;
80413;PMS5003;69758;52.580;13.068;2023-10-31T01:04:46;10;10;
80413;PMS5003;69758;52.580;13.068;2023-10-31T01:07:12;9;7;
80413;PMS5003;69758;52.580;13.068;2023-10-31T01:09:37;12;12;
80413;PMS5003;69758;52.580;13.068;2023-10-31T01:12:02;11;10;
80413;PMS5003;69758;52.580;13.068;2023-10-31T01:14:28;10;10;
80413;PMS5003;69758;52.580;13.068;2023-10-31T01:16:53;11;11;
80413;PMS5003;69758;52.580;13.068;2023-10-31T01:19:18;12;11;
80413;PMS5003;69758;52.580;13.068;2023-10-31T01:21:43;11;11;
80413;PMS5003;69758;52.580;13.068;2023-10-31T01:24:09;12;12;
80413;PMS5003;69758;52.580;13.068;2023-10-31T01:26:34;11;10;
80413;PMS5003;69758;52.580;13.068;2023-10-31T01:28:59;13;12;
80413;PMS5003;69758;52.580;13.068;2023-10-31T01:31:24;12;11;
80413;PMS5003;69758;52.580;13.068;2023-10-31T01:33:50;11;10;
80413;PMS5003;69758;52.580;13.068;2023-10-31T01:36:15;10;10;
80413;PMS5003;69758;52.580;13.068;2023-10-31T01:38:41;10;10;
80413;PMS5003;69758;52.580;13.068;2023-10-31T01:41:07;11;11;
80413;PMS5003;69758;52.580;13.068;2023-10-31T01:43:32;11;11;
80413;PMS5003;69758;52.580;13.068;2023-10-31T01:45:57;10;10;
80413;PMS5003;69758;52.580;13.068;2023-10-31T01:48:22;11;10;
80413;PMS5003;69758;52.580;13.068;2023-10-31T01:50:47;12;11;
80413;PMS5003;69758;52.580;13.068;2023-10-31T01:53:13;11;11;
80413;PMS5003;69758;52.580;13.068;2023-10-31T01:55:38;11;10;
80413;PMS5003;69758;52.580;13.068;2023-10-31T01:58:04;10;9;
80413;PMS5003;69758;52.580;13.068;2023-10-31T02:00:29;11;11;
80413;PMS5003;69758;52.580;13.068;2023-10-31T02:02:54;13;13;
80413;PMS5003;69758;52.580;13.068;2023-10-31T02:05:20;14;13;
80413;PMS5003;69758;52.580;13.068;2023-10-31T02:07:46;14;14;
80413;PMS5003;69758;52.580;13.068;2023-10-31T02:10:11;11;10;
80413;PMS5003;69758;52.580;13.068;2023-10-31T02:12:37;11;11;
80413;PMS5003;69758;52.580;13.068;2023-10-31T02:15:03;12;12;
80413;PMS5003;69758;52.580;13.068;2023-10-31T02:17:29;12;12;
80413;PMS5003;69758;52.580;13.068;2023-10-31T02:19:54;12;11;
80413;PMS5003;69758;52.580;13.068;2023-10-31T02:22:20;15;14;
80413;PMS5003;69758;52.580;13.068;2023-10-31T02:24:45;15;13;
80413;PMS5003;69758;52.580;13.068;2023-10-31T02:27:10;14;12;
80413;PMS5003;69758;52.580;13.068;2023-10-31T02:29:35;13;12;
80413;PMS5003;69758;52.580;13.068;2023-10-31T02:32:01;14;13;
80413;PMS5003;69758;52.580;13.068;2023-10-31T02:34:27;12;12;
80413;PMS5003;69758;52.580;13.068;2023-10-31T02:36:52;15;14;
80413;PMS5003;69758;52.580;13.068;2023-10-31T02:39:17;16;13;
80413;PMS5003;69758;52.580;13.068;2023-10-31T02:41:42;16;16;
80413;PMS5003;69758;52.580;13.068;2023-10-31T02:44:08;15;15;
80413;PMS5003;69758;52.580;13.068;2023-10-31T02:46:36;12;12;
80413;PMS5003;69758;52.580;13.068;2023-10-31T02:48:58;16;16;
80413;PMS5003;69758;52.580;13.068;2023-10-31T02:51:24;14;14;
80413;PMS5003;69758;52.580;13.068;2023-10-31T02:53:49;14;14;
80413;PMS5003;69758;52.580;13.068;2023-10-31T02:56:15;12;12;
80413;PMS5003;69758;52.580;13.068;2023-10-31T02:58:40;14;14;
80413;PMS5003;69758;52.580;13.068;2023-10-31T03:01:05;13;13;
80413;PMS5003;69758;52.580;13.068;2023-10-31T03:03:31;12;11;
80413;PMS5003;69758;52.580;13.068;2023-10-31T03:05:56;17;16;
80413;PMS5003;69758;52.580;13.068;2023-10-31T03:08:22;14;13;
80413;PMS5003;69758;52.580;13.068;2023-10-31T03:10:47;14;13;
80413;PMS5003;69758;52.580;13.068;2023-10-31T03:13:12;16;15;
80413;PMS5003;69758;52.580;13.068;2023-10-31T03:15:37;16;15;
80413;PMS5003;69758;52.580;13.068;2023-10-31T03:18:03;14;13;
80413;PMS5003;69758;52.580;13.068;2023-10-31T03:20:28;16;16;
80413;PMS5003;69758;52.580;13.068;2023-10-31T03:22:53;17;16;
80413;PMS5003;69758;52.580;13.068;2023-10-31T03:25:18;11;11;
80413;PMS5003;69758;52.580;13.068;2023-10-31T03:27:44;14;14;
80413;PMS5003;69758;52.580;13.068;2023-10-31T03:30:10;15;14;
80413;PMS5003;69758;52.580;13.068;2023-10-31T03:32:35;12;12;
80413;PMS5003;69758;52.580;13.068;2023-10-31T03:35:01;13;13;
80413;PMS5003;69758;52.580;13.068;2023-10-31T03:37:27;11;9;
80413;PMS5003;69758;52.580;13.068;2023-10-31T03:39:52;13;12;
80413;PMS5003;69758;52.580;13.068;2023-10-31T03:42:17;11;10;
80413;PMS5003;69758;52.580;13.068;2023-10-31T03:44:42;13;11;
80413;PMS5003;69758;52.580;13.068;2023-10-31T03:47:07;13;12;
80413;PMS5003;69758;52.580;13.068;2023-10-31T03:49:33;8;8;
80413;PMS5003;69758;52.580;13.068;2023-10-31T03:51:58;12;12;
80413;PMS5003;69758;52.580;13.068;2023-10-31T03:54:23;11;11;
80413;PMS5003;69758;52.580;13.068;2023-10-31T03:56:48;13;12;
80413;PMS5003;69758;52.580;13.068;2023-10-31T03:59:14;13;13;
80413;PMS5003;69758;52.580;13.068;2023-10-31T04:01:39;9;9;
80413;PMS5003;69758;52.580;13.068;2023-10-31T04:04:04;10;9;
80413;PMS5003;69758;52.580;13.068;2023-10-31T04:06:29;7;7;
80413;PMS5003;69758;52.580;13.068;2023-10-31T04:08:54;9;9;
80413;PMS5003;69758;52.580;13.068;2023-10-31T04:11:20;11;11;
80413;PMS5003;69758;52.580;13.068;2023-10-31T04:13:45;11;11;
80413;PMS5003;69758;52.580;13.068;2023-10-31T04:16:10;11;10;
80413;PMS5003;69758;52.580;13.068;2023-10-31T04:18:36;10;10;
80413;PMS5003;69758;52.580;13.068;2023-10-31T04:21:01;11;11;
80413;PMS5003;69758;52.580;13.068;2023-10-31T04:23:26;11;11;
80413;PMS5003;69758;52.580;13.068;2023-10-31T04:25:51;9;9;
80413;PMS5003;69758;52.580;13.068;2023-10-31T04:28:16;11;11;
80413;PMS5003;69758;52.580;13.068;2023-10-31T04:30:42;10;10;
80413;PMS5003;69758;52.580;13.068;2023-10-31T04:33:07;12;11;
80413;PMS5003;69758;52.580;13.068;2023-10-31T04:35:32;12;11;
80413;PMS5003;69758;52.580;13.068;2023-10-31T04:37:57;11;11;
80413;PMS5003;69758;52.580;13.068;2023-10-31T04:40:23;10;9;
80413;PMS5003;69758;52.580;13.068;2023-10-31T04:42:48;11;11;
80413;PMS5003;69758;52.580;13.068;2023-10-31T04:45:13;11;11;
80413;PMS5003;69758;52.580;13.068;2023-10-31T04:47:38;11;10;
80413;PMS5003;69758;52.580;13.068;2023-10-31T04:50:04;11;10;
80413;PMS5003;69758;52.580;13.068;2023-10-31T04:52:29;9;9;
80413;PMS5003;69758;52.580;13.068;2023-10-31T04:54:54;11;11;
80413;PMS5003;69758;52.580;13.068;2023-10-31T04:57:19;10;10;
80413;PMS5003;69758;52.580;13.068;2023-10-31T04:59:45;11;9;
80413;PMS5003;69758;52.580;13.068;2023-10-31T05:02:11;12;9;
80413;PMS5003;69758;52.580;13.068;2023-10-31T05:04:37;10;10;
80413;PMS5003;69758;52.580;13.068;2023-10-31T05:07:01;8;8;
80413;PMS5003;69758;52.580;13.068;2023-10-31T05:09:26;10;10;
80413;PMS5003;69758;52.580;13.068;2023-10-31T05:11:52;7;7;
80413;PMS5003;69758;52.580;13.068;2023-10-31T05:14:17;10;9;
80413;PMS5003;69758;52.580;13.068;2023-10-31T05:16:43;10;9;
80413;PMS5003;69758;52.580;13.068;2023-10-31T05:19:08;10;9;
80413;PMS5003;69758;52.580;13.068;2023-10-31T05:21:33;11;11;
80413;PMS5003;69758;52.580;13.068;2023-10-31T05:23:58;9;9;
80413;PMS5003;69758;52.580;13.068;2023-10-31T05:26:24;10;10;
80413;PMS5003;69758;52.580;13.068;2023-10-31T05:28:49;9;9;
80413;PMS5003;69758;52.580;13.068;2023-10-31T05:31:15;10;9;
80413;PMS5003;69758;52.580;13.068;2023-10-31T05:33:39;10;10;
80413;PMS5003;69758;52.580;13.068;2023-10-31T05:36:05;9;9;
80413;PMS5003;69758;52.580;13.068;2023-10-31T05:38:30;10;10;
80413;PMS5003;69758;52.580;13.068;2023-10-31T05:40:55;7;7;
80413;PMS5003;69758;52.580;13.068;2023-10-31T05:43:20;9;8;
80413;PMS5003;69758;52.580;13.068;2023-10-31T05:45:45;10;10;
80413;PMS5003;69758;52.580;13.068;2023-10-31T05:48:10;11;10;
80413;PMS5003;69758;52.580;13.068;2023-10-31T05:50:36;11;10;
80413;PMS5003;69758;52.580;13.068;2023-10-31T05:53:01;11;10;
80413;PMS5003;69758;52.580;13.068;2023-10-31T05:55:26;9;9;
80413;PMS5003;69758;52.580;13.068;2023-10-31T05:57:52;9;8;
80413;PMS5003;69758;52.580;13.068;2023-10-31T06:00:17;10;9;
80413;PMS5003;69758;52.580;13.068;2023-10-31T06:02:42;11;11;
80413;PMS5003;69758;52.580;13.068;2023-10-31T06:05:08;10;9;
80413;PMS5003;69758;52.580;13.068;2023-10-31T06:07:33;14;14;
80413;PMS5003;69758;52.580;13.068;2023-10-31T06:09:58;10;10;
80413;PMS5003;69758;52.580;13.068;2023-10-31T06:12:23;13;13;
80413;PMS5003;69758;52.580;13.068;2023-10-31T06:14:48;12;11;
80413;PMS5003;69758;52.580;13.068;2023-10-31T06:17:14;12;10;
80413;PMS5003;69758;52.580;13.068;2023-10-31T06:19:39;15;15;
80413;PMS5003;69758;52.580;13.068;2023-10-31T06:22:05;14;14;
80413;PMS5003;69758;52.580;13.068;2023-10-31T06:24:30;9;9;
80413;PMS5003;69758;52.580;13.068;2023-10-31T06:26:56;18;18;
80413;PMS5003;69758;52.580;13.068;2023-10-31T06:29:21;21;21;
80413;PMS5003;69758;52.580;13.068;2023-10-31T06:31:47;11;11;
80413;PMS5003;69758;52.580;13.068;2023-10-31T06:34:12;9;9;
80413;PMS5003;69758;52.580;13.068;2023-10-31T06:36:38;14;14;
80413;PMS5003;69758;52.580;13.068;2023-10-31T06:39:03;12;12;
80413;PMS5003;69758;52.580;13.068;2023-10-31T06:41:28;9;9;
80413;PMS5003;69758;52.580;13.068;2023-10-31T06:43:54;10;10;
80413;PMS5003;69758;52.580;13.068;2023-10-31T06:46:19;11;10;
80413;PMS5003;69758;52.580;13.068;2023-10-31T06:48:44;9;9;
80413;PMS5003;69758;52.580;13.068;2023-10-31T06:51:10;10;10;
80413;PMS5003;69758;52.580;13.068;2023-10-31T06:53:35;12;11;
80413;PMS5003;69758;52.580;13.068;2023-10-31T06:56:00;12;11;
80413;PMS5003;69758;52.580;13.068;2023-10-31T06:58:26;6;6;
80413;PMS5003;69758;52.580;13.068;2023-10-31T07:00:51;8;8;
80413;PMS5003;69758;52.580;13.068;2023-10-31T07:03:16;8;8;
80413;PMS5003;69758;52.580;13.068;2023-10-31T07:05:41;9;8;
80413;PMS5003;69758;52.580;13.068;2023-10-31T07:08:06;7;7;
80413;PMS5003;69758;52.580;13.068;2023-10-31T07:10:32;6;6;
80413;PMS5003;69758;52.580;13.068;2023-10-31T07:12:57;6;6;
80413;PMS5003;69758;52.580;13.068;2023-10-31T07:15:22;5;5;
80413;PMS5003;69758;52.580;13.068;2023-10-31T07:17:47;4;4;
80413;PMS5003;69758;52.580;13.068;2023-10-31T07:20:13;5;5;
80413;PMS5003;69758;52.580;13.068;2023-10-31T07:22:38;7;7;
80413;PMS5003;69758;52.580;13.068;2023-10-31T07:25:03;5;5;
80413;PMS5003;69758;52.580;13.068;2023-10-31T07:27:28;5;5;
80413;PMS5003;69758;52.580;13.068;2023-10-31T07:29:53;5;5;
80413;PMS5003;69758;52.580;13.068;2023-10-31T07:32:19;6;6;
80413;PMS5003;69758;52.580;13.068;2023-10-31T07:34:44;5;5;
80413;PMS5003;69758;52.580;13.068;2023-10-31T07:37:09;5;5;
80413;PMS5003;69758;52.580;13.068;2023-10-31T07:39:34;3;3;
80413;PMS5003;69758;52.580;13.068;2023-10-31T07:41:59;2;2;
80413;PMS5003;69758;52.580;13.068;2023-10-31T07:44:25;4;4;
80413;PMS5003;69758;52.580;13.068;2023-10-31T07:46:50;4;4;
80413;PMS5003;69758;52.580;13.068;2023-10-31T07:49:15;2;2;
80413;PMS5003;69758;52.580;13.068;2023-10-31T07:51:40;3;2;
80413;PMS5003;69758;52.580;13.068;2023-10-31T07:54:06;2;2;
80413;PMS5003;69758;52.580;13.068;2023-10-31T07:56:31;2;2;
80413;PMS5003;69758;52.580;13.068;2023-10-31T07:59:01;1;1;
80413;PMS5003;69758;52.580;13.068;2023-10-31T08:01:21;3;2;
80413;PMS5003;69758;52.580;13.068;2023-10-31T08:03:47;2;2;
80413;PMS5003;69758;52.580;13.068;2023-10-31T08:06:12;1;1;
80413;PMS5003;69758;52.580;13.068;2023-10-31T08:08:37;1;1;
80413;PMS5003;69758;52.580;13.068;2023-10-31T08:11:02;3;2;
80413;PMS5003;69758;52.580;13.068;2023-10-31T08:13:27;1;1;
80413;PMS5003;69758;52.580;13.068;2023-10-31T08:15:53;1;1;
80413;PMS5003;69758;52.580;13.068;2023-10-31T08:18:18;1;1;
80413;PMS5003;69758;52.580;13.068;2023-10-31T08:20:43;1;1;
80413;PMS5003;69758;52.580;13.068;2023-10-31T08:23:08;2;2;
80413;PMS5003;69758;52.580;13.068;2023-10-31T08:25:33;1;1;
80413;PMS5003;69758;52.580;13.068;2023-10-31T08:27:59;2;2;
80413;PMS5003;69758;52.580;13.068;2023-10-31T08:30:24;2;2;
80413;PMS5003;69758;52.580;13.068;2023-10-31T08:32:49;2;2;
80413;PMS5003;69758;52.580;13.068;2023-10-31T08:35:14;3;3;
80413;PMS5003;69758;52.580;13.068;2023-10-31T08:37:40;2;2;
80413;PMS5003;69758;52.580;13.068;2023-10-31T08:40:05;2;1;
80413;PMS5003;69758;52.580;13.068;2023-10-31T08:42:30;2;2;
80413;PMS5003;69758;52.580;13.068;2023-10-31T08:44:56;1;1;
80413;PMS5003;69758;52.580;13.068;2023-10-31T08:47:21;1;1;
80413;PMS5003;69758;52.580;13.068;2023-10-31T08:49:46;2;1;
80413;PMS5003;69758;52.580;13.068;2023-10-31T08:52:11;1;1;
80413;PMS5003;69758;52.580;13.068;2023-10-31T08:54:36;2;2;
80413;PMS5003;69758;52.580;13.068;2023-10-31T08:57:01;1;1;
80413;PMS5003;69758;52.580;13.068;2023-10-31T08:59:27;1;1;
80413;PMS5003;69758;52.580;13.068;2023-10-31T09:01:52;0;0;
80413;PMS5003;69758;52.580;13.068;2023-10-31T09:04:17;2;2;
80413;PMS5003;69758;52.580;13.068;2023-10-31T09:06:42;1;1;
80413;PMS5003;69758;52.580;13.068;2023-10-31T09:09:08;2;2;
80413;PMS5003;69758;52.580;13.068;2023-10-31T09:11:33;1;1;
80413;PMS5003;69758;52.580;13.068;2023-10-31T09:13:58;1;1;
80413;PMS5003;69758;52.580;13.068;2023-10-31T09:16:28;1;1;
80413;PMS5003;69758;52.580;13.068;2023-10-31T09:18:48;0;0;
80413;PMS5003;69758;52.580;13.068;2023-10-31T09:21:14;0;0;
80413;PMS5003;69758;52.580;13.068;2023-10-31T09:23:39;2;1;
80413;PMS5003;69758;52.580;13.068;2023-10-31T09:26:04;1;1;
80413;PMS5003;69758;52.580;13.068;2023-10-31T09:28:30;0;0;
80413;PMS5003;69758;52.580;13.068;2023-10-31T09:30:55;0;0;
80413;PMS5003;69758;52.580;13.068;2023-10-31T09:33:20;0;0;
80413;PMS5003;69758;52.580;13.068;2023-10-31T09:35:45;0;0;
80413;PMS5003;69758;52.580;13.068;2023-10-31T09:38:10;0;0;
80413;PMS5003;69758;52.580;13.068;2023-10-31T09:40:36;2;1;
80413;PMS5003;69758;52.580;13.068;2023-10-31T09:45:26;0;0;
80413;PMS5003;69758;52.580;13.068;2023-10-31T09:47:51;1;1;
80413;PMS5003;69758;52.580;13.068;2023-10-31T09:50:16;1;1;
80413;PMS5003;69758;52.580;13.068;2023-10-31T09:52:42;1;1;
80413;PMS5003;69758;52.580;13.068;2023-10-31T09:55:07;1;1;
80413;PMS5003;69758;52.580;13.068;2023-10-31T09:57:32;1;1;
80413;PMS5003;69758;52.580;13.068;2023-10-31T09:59:57;1;1;
80413;PMS5003;69758;52.580;13.068;2023-10-31T10:02:22;1;1;
80413;PMS5003;69758;52.580;13.068;2023-10-31T10:04:48;1;1;
80413;PMS5003;69758;52.580;13.068;2023-10-31T10:07:13;1;1;
80413;PMS5003;69758;52.580;13.068;2023-10-31T10:09:38;1;1;
80413;PMS5003;69758;52.580;13.068;2023-10-31T10:12:03;2;2;
80413;PMS5003;69758;52.580;13.068;2023-10-31T10:14:29;1;1;
80413;PMS5003;69758;52.580;13.068;2023-10-31T10:16:54;1;1;
80413;PMS5003;69758;52.580;13.068;2023-10-31T10:19:20;1;1;
80413;PMS5003;69758;52.580;13.068;2023-10-31T10:21:48;1;1;
80413;PMS5003;69758;52.580;13.068;2023-10-31T10:24:09;3;2;
80413;PMS5003;69758;52.580;13.068;2023-10-31T10:26:34;1;1;
80413;PMS5003;69758;52.580;13.068;2023-10-31T10:29:00;1;1;
80413;PMS5003;69758;52.580;13.068;2023-10-31T10:31:25;1;1;
80413;PMS5003;69758;52.580;13.068;2023-10-31T10:33:50;2;2;
80413;PMS5003;69758;52.580;13.068;2023-10-31T10:36:15;2;2;
80413;PMS5003;69758;52.580;13.068;2023-10-31T10:38:41;2;2;
80413;PMS5003;69758;52.580;13.068;2023-10-31T10:41:06;3;3;
80413;PMS5003;69758;52.580;13.068;2023-10-31T10:43:31;3;3;
80413;PMS5003;69758;52.580;13.068;2023-10-31T10:45:57;2;2;
80413;PMS5003;69758;52.580;13.068;2023-10-31T10:48:22;4;4;
80413;PMS5003;69758;52.580;13.068;2023-10-31T10:50:48;4;3;
80413;PMS5003;69758;52.580;13.068;2023-10-31T10:53:13;3;3;
80413;PMS5003;69758;52.580;13.068;2023-10-31T10:55:38;3;3;
80413;PMS5003;69758;52.580;13.068;2023-10-31T10:58:03;3;3;
80413;PMS5003;69758;52.580;13.068;2023-10-31T11:00:28;4;4;
80413;PMS5003;69758;52.580;13.068;2023-10-31T11:02:53;3;3;
80413;PMS5003;69758;52.580;13.068;2023-10-31T11:05:18;3;2;
80413;PMS5003;69758;52.580;13.068;2023-10-31T11:07:43;3;3;
80413;PMS5003;69758;52.580;13.068;2023-10-31T11:10:08;4;4;
80413;PMS5003;69758;52.580;13.068;2023-10-31T11:12:34;5;5;
80413;PMS5003;69758;52.580;13.068;2023-10-31T11:14:59;4;4;
80413;PMS5003;69758;52.580;13.068;2023-10-31T11:17:24;3;3;
80413;PMS5003;69758;52.580;13.068;2023-10-31T11:19:49;4;4;
80413;PMS5003;69758;52.580;13.068;2023-10-31T11:22:15;4;4;
80413;PMS5003;69758;52.580;13.068;2023-10-31T11:24:40;3;3;
80413;PMS5003;69758;52.580;13.068;2023-10-31T11:27:05;4;4;
80413;PMS5003;69758;52.580;13.068;2023-10-31T11:29:30;4;4;
80413;PMS5003;69758;52.580;13.068;2023-10-31T11:31:55;4;4;
80413;PMS5003;69758;52.580;13.068;2023-10-31T11:34:21;3;3;
80413;PMS5003;69758;52.580;13.068;2023-10-31T11:36:46;3;3;
80413;PMS5003;69758;52.580;13.068;2023-10-31T11:39:11;4;4;
80413;PMS5003;69758;52.580;13.068;2023-10-31T11:41:37;5;5;
80413;PMS5003;69758;52.580;13.068;2023-10-31T11:44:02;3;3;
80413;PMS5003;69758;52.580;13.068;2023-10-31T11:46:28;5;5;
80413;PMS5003;69758;52.580;13.068;2023-10-31T11:48:52;3;3;
80413;PMS5003;69758;52.580;13.068;2023-10-31T11:51:17;5;5;
80413;PMS5003;69758;52.580;13.068;2023-10-31T11:53:42;4;4;
80413;PMS5003;69758;52.580;13.068;2023-10-31T11:56:08;4;4;
80413;PMS5003;69758;52.580;13.068;2023-10-31T11:58:33;3;3;
80413;PMS5003;69758;52.580;13.068;2023-10-31T12:01:01;3;3;
80413;PMS5003;69758;52.580;13.068;2023-10-31T12:03:23;2;2;
80413;PMS5003;69758;52.580;13.068;2023-10-31T12:05:52;5;4;
80413;PMS5003;69758;52.580;13.068;2023-10-31T12:08:14;2;2;
80413;PMS5003;69758;52.580;13.068;2023-10-31T12:10:39;2;2;
80413;PMS5003;69758;52.580;13.068;2023-10-31T12:13:04;3;3;
80413;PMS5003;69758;52.580;13.068;2023-10-31T12:15:30;1;1;
80413;PMS5003;69758;52.580;13.068;2023-10-31T12:17:57;2;1;
80413;PMS5003;69758;52.580;13.068;2023-10-31T12:20:20;1;1;
80413;PMS5003;69758;52.580;13.068;2023-10-31T12:22:45;2;2;
80413;PMS5003;69758;52.580;13.068;2023-10-31T12:25:10;1;1;
80413;PMS5003;69758;52.580;13.068;2023-10-31T12:27:42;2;2;
80413;PMS5003;69758;52.580;13.068;2023-10-31T12:30:00;1;1;
80413;PMS5003;69758;52.580;13.068;2023-10-31T12:32:26;0;0;
80413;PMS5003;69758;52.580;13.068;2023-10-31T12:34:51;1;1;
80413;PMS5003;69758;52.580;13.068;2023-10-31T12:37:16;1;1;
80413;PMS5003;69758;52.580;13.068;2023-10-31T12:39:41;1;1;
80413;PMS5003;69758;52.580;13.068;2023-10-31T12:42:06;1;1;
80413;PMS5003;69758;52.580;13.068;2023-10-31T12:44:32;1;1;
80413;PMS5003;69758;52.580;13.068;2023-10-31T12:46:57;0;0;
80413;PMS5003;69758;52.580;13.068;2023-10-31T12:49:22;1;1;
80413;PMS5003;69758;52.580;13.068;2023-10-31T12:51:56;1;1;
80413;PMS5003;69758;52.580;13.068;2023-10-31T12:54:12;1;1;
80413;PMS5003;69758;52.580;13.068;2023-10-31T12:56:38;0;0;
80413;PMS5003;69758;52.580;13.068;2023-10-31T12:59:03;0;0;
80413;PMS5003;69758;52.580;13.068;2023-10-31T13:01:28;1;1;
80413;PMS5003;69758;52.580;13.068;2023-10-31T13:03:54;1;1;
80413;PMS5003;69758;52.580;13.068;2023-10-31T13:06:19;1;1;
80413;PMS5003;69758;52.580;13.068;2023-10-31T13:08:45;0;0;
80413;PMS5003;69758;52.580;13.068;2023-10-31T13:11:09;1;1;
80413;PMS5003;69758;52.580;13.068;2023-10-31T13:13:35;0;0;
80413;PMS5003;69758;52.580;13.068;2023-10-31T13:16:00;0;0;
80413;PMS5003;69758;52.580;13.068;2023-10-31T13:18:25;0;0;
80413;PMS5003;69758;52.580;13.068;2023-10-31T13:20:51;0;0;
80413;PMS5003;69758;52.580;13.068;2023-10-31T13:23:16;1;1;
80413;PMS5003;69758;52.580;13.068;2023-10-31T13:25:41;0;0;
80413;PMS5003;69758;52.580;13.068;2023-10-31T13:28:06;0;0;
80413;PMS5003;69758;52.580;13.068;2023-10-31T13:30:31;0;0;
80413;PMS5003;69758;52.580;13.068;2023-10-31T13:32:56;0;0;
80413;PMS5003;69758;52.580;13.068;2023-10-31T13:35:22;0;0;
80413;PMS5003;69758;52.580;13.068;2023-10-31T13:37:47;0;0;
80413;PMS5003;69758;52.580;13.068;2023-10-31T13:40:12;0;0;
80413;PMS5003;69758;52.580;13.068;2023-10-31T13:42:37;0;0;
80413;PMS5003;69758;52.580;13.068;2023-10-31T13:45:03;0;0;
80413;PMS5003;69758;52.580;13.068;2023-10-31T13:47:28;1;1;
80413;PMS5003;69758;52.580;13.068;2023-10-31T13:49:53;0;0;
80413;PMS5003;69758;52.580;13.068;2023-10-31T13:52:18;1;0;
80413;PMS5003;69758;52.580;13.068;2023-10-31T13:54:43;1;0;
80413;PMS5003;69758;52.580;13.068;2023-10-31T13:57:08;0;0;
80413;PMS5003;69758;52.580;13.068;2023-10-31T13:59:34;2;2;
80413;PMS5003;69758;52.580;13.068;2023-10-31T14:01:59;1;1;
80413;PMS5003;69758;52.580;13.068;2023-10-31T14:04:24;0;0;
80413;PMS5003;69758;52.580;13.068;2023-10-31T14:06:49;0;0;
80413;PMS5003;69758;52.580;13.068;2023-10-31T14:09:14;1;0;
80413;PMS5003;69758;52.580;13.068;2023-10-31T14:11:40;0;0;
80413;PMS5003;69758;52.580;13.068;2023-10-31T14:14:05;0;0;
80413;PMS5003;69758;52.580;13.068;2023-10-31T14:16:30;0;0;
80413;PMS5003;69758;52.580;13.068;2023-10-31T14:18:55;0;0;
80413;PMS5003;69758;52.580;13.068;2023-10-31T14:21:21;0;0;
80413;PMS5003;69758;52.580;13.068;2023-10-31T14:23:46;0;0;
80413;PMS5003;69758;52.580;13.068;2023-10-31T14:26:11;0;0;
80413;PMS5003;69758;52.580;13.068;2023-10-31T14:28:36;1;1;
80413;PMS5003;69758;52.580;13.068;2023-10-31T14:31:01;2;2;
80413;PMS5003;69758;52.580;13.068;2023-10-31T14:33:28;1;1;
80413;PMS5003;69758;52.580;13.068;2023-10-31T14:35:52;1;1;
80413;PMS5003;69758;52.580;13.068;2023-10-31T14:38:17;1;1;
80413;PMS5003;69758;52.580;13.068;2023-10-31T14:40:42;0;0;
80413;PMS5003;69758;52.580;13.068;2023-10-31T14:43:07;0;0;
80413;PMS5003;69758;52.580;13.068;2023-10-31T14:45:33;1;1;
80413;PMS5003;69758;52.580;13.068;2023-10-31T14:47:58;5;5;
80413;PMS5003;69758;52.580;13.068;2023-10-31T14:50:23;5;5;
80413;PMS5003;69758;52.580;13.068;2023-10-31T14:52:48;2;2;
80413;PMS5003;69758;52.580;13.068;2023-10-31T14:55:14;2;2;
80413;PMS5003;69758;52.580;13.068;2023-10-31T14:57:39;9;9;
80413;PMS5003;69758;52.580;13.068;2023-10-31T15:00:05;2;2;
80413;PMS5003;69758;52.580;13.068;2023-10-31T15:02:29;2;2;
80413;PMS5003;69758;52.580;13.068;2023-10-31T15:04:56;1;1;
80413;PMS5003;69758;52.580;13.068;2023-10-31T15:07:20;1;1;
80413;PMS5003;69758;52.580;13.068;2023-10-31T15:09:45;3;3;
80413;PMS5003;69758;52.580;13.068;2023-10-31T15:12:10;1;1;
80413;PMS5003;69758;52.580;13.068;2023-10-31T15:14:36;1;1;
80413;PMS5003;69758;52.580;13.068;2023-10-31T15:17:01;1;1;
80413;PMS5003;69758;52.580;13.068;2023-10-31T15:19:26;1;1;
80413;PMS5003;69758;52.580;13.068;2023-10-31T15:21:52;0;0;
80413;PMS5003;69758;52.580;13.068;2023-10-31T15:24:17;1;1;
80413;PMS5003;69758;52.580;13.068;2023-10-31T15:26:42;1;1;
80413;PMS5003;69758;52.580;13.068;2023-10-31T15:29:07;3;2;
80413;PMS5003;69758;52.580;13.068;2023-10-31T15:31:32;2;2;
80413;PMS5003;69758;52.580;13.068;2023-10-31T15:33:58;1;1;
80413;PMS5003;69758;52.580;13.068;2023-10-31T15:36:23;1;1;
80413;PMS5003;69758;52.580;13.068;2023-10-31T15:38:48;0;0;
80413;PMS5003;69758;52.580;13.068;2023-10-31T15:41:13;0;0;
80413;PMS5003;69758;52.580;13.068;2023-10-31T15:43:39;0;0;
80413;PMS5003;69758;52.580;13.068;2023-10-31T15:46:04;1;1;
80413;PMS5003;69758;52.580;13.068;2023-10-31T15:48:29;1;1;
80413;PMS5003;69758;52.580;13.068;2023-10-31T15:50:54;2;2;
80413;PMS5003;69758;52.580;13.068;2023-10-31T15:53:20;1;1;
80413;PMS5003;69758;52.580;13.068;2023-10-31T15:55:45;2;2;
80413;PMS5003;69758;52.580;13.068;2023-10-31T15:58:10;3;3;
80413;PMS5003;69758;52.580;13.068;2023-10-31T16:00:36;1;1;
80413;PMS5003;69758;52.580;13.068;2023-10-31T16:03:00;3;3;
80413;PMS5003;69758;52.580;13.068;2023-10-31T16:05:25;1;1;
80413;PMS5003;69758;52.580;13.068;2023-10-31T16:07:51;1;1;
80413;PMS5003;69758;52.580;13.068;2023-10-31T16:10:16;2;2;
80413;PMS5003;69758;52.580;13.068;2023-10-31T16:12:41;2;2;
80413;PMS5003;69758;52.580;13.068;2023-10-31T16:15:07;2;2;